sensor_id;sensor_type;location;lat;lon;timestamp;P1;durP1;ratioP1;P2;durP2;ratioP2
11522;SDS011;40093;43.224;27.910;2022-12-18T00:02:16;4.47;;;4.07;;
11522;SDS011;40093;43.224;27.910;2022-12-18T00:04:42;4.60;;;3.83;;
11522;SDS011;40093;43.224;27.910;2022-12-18T00:07:11;5.20;;;4.03;;
11522;SDS011;40093;43.224;27.910;2022-12-18T00:09:38;5.00;;;4.17;;
11522;SDS011;40093;43.224;27.910;2022-12-18T00:12:05;4.70;;;3.80;;
11522;SDS011;40093;43.224;27.910;2022-12-18T00:14:32;4.30;;;3.87;;
11522;SDS011;40093;43.224;27.910;2022-12-18T00:16:59;4.67;;;3.97;;
11522;SDS011;40093;43.224;27.910;2022-12-18T00:19:26;5.43;;;4.20;;
11522;SDS011;40093;43.224;27.910;2022-12-18T00:21:53;4.77;;;4.13;;
11522;SDS011;40093;43.224;27.910;2022-12-18T00:24:22;6.00;;;4.20;;
11522;SDS011;40093;43.224;27.910;2022-12-18T00:26:48;4.93;;;4.43;;
11522;SDS011;40093;43.224;27.910;2022-12-18T00:29:15;5.00;;;4.20;;
11522;SDS011;40093;43.224;27.910;2022-12-18T00:31:42;5.10;;;4.23;;
11522;SDS011;40093;43.224;27.910;2022-12-18T00:34:10;4.97;;;3.97;;
11522;SDS011;40093;43.224;27.910;2022-12-18T00:36:38;6.10;;;4.67;;
11522;SDS011;40093;43.224;27.910;2022-12-18T00:39:06;5.17;;;4.10;;
11522;SDS011;40093;43.224;27.910;2022-12-18T00:41:34;4.90;;;4.33;;
11522;SDS011;40093;43.224;27.910;2022-12-18T00:44:19;4.83;;;4.27;;
11522;SDS011;40093;43.224;27.910;2022-12-18T00:46:46;5.13;;;3.97;;
11522;SDS011;40093;43.224;27.910;2022-12-18T00:49:14;5.03;;;4.30;;
11522;SDS011;40093;43.224;27.910;2022-12-18T00:51:42;4.50;;;3.80;;
11522;SDS011;40093;43.224;27.910;2022-12-18T00:54:10;4.40;;;4.00;;
11522;SDS011;40093;43.224;27.910;2022-12-18T00:56:39;4.70;;;3.80;;
11522;SDS011;40093;43.224;27.910;2022-12-18T00:59:06;4.97;;;3.90;;
11522;SDS011;40093;43.224;27.910;2022-12-18T01:01:34;5.40;;;3.80;;
11522;SDS011;40093;43.224;27.910;2022-12-18T01:04:01;4.50;;;3.87;;
11522;SDS011;40093;43.224;27.910;2022-12-18T01:06:28;4.90;;;3.40;;
11522;SDS011;40093;43.224;27.910;2022-12-18T01:08:55;4.47;;;3.80;;
11522;SDS011;40093;43.224;27.910;2022-12-18T01:11:23;4.77;;;4.37;;
11522;SDS011;40093;43.224;27.910;2022-12-18T01:13:52;5.33;;;4.17;;
11522;SDS011;40093;43.224;27.910;2022-12-18T01:16:20;4.27;;;3.87;;
11522;SDS011;40093;43.224;27.910;2022-12-18T01:18:50;4.43;;;3.63;;
11522;SDS011;40093;43.224;27.910;2022-12-18T01:21:18;4.67;;;3.70;;
11522;SDS011;40093;43.224;27.910;2022-12-18T01:23:44;4.10;;;3.70;;
11522;SDS011;40093;43.224;27.910;2022-12-18T01:26:12;6.23;;;4.00;;
11522;SDS011;40093;43.224;27.910;2022-12-18T01:28:41;5.07;;;4.37;;
11522;SDS011;40093;43.224;27.910;2022-12-18T01:31:15;6.47;;;3.90;;
11522;SDS011;40093;43.224;27.910;2022-12-18T01:33:43;6.10;;;4.07;;
11522;SDS011;40093;43.224;27.910;2022-12-18T01:36:19;4.67;;;3.87;;
11522;SDS011;40093;43.224;27.910;2022-12-18T01:38:48;4.20;;;3.80;;
11522;SDS011;40093;43.224;27.910;2022-12-18T01:41:17;4.10;;;3.57;;
11522;SDS011;40093;43.224;27.910;2022-12-18T01:43:48;5.27;;;3.53;;
11522;SDS011;40093;43.224;27.910;2022-12-18T01:46:19;3.50;;;3.20;;
11522;SDS011;40093;43.224;27.910;2022-12-18T01:48:51;3.93;;;3.53;;
11522;SDS011;40093;43.224;27.910;2022-12-18T01:51:21;4.03;;;3.50;;
11522;SDS011;40093;43.224;27.910;2022-12-18T01:53:48;3.60;;;3.30;;
11522;SDS011;40093;43.224;27.910;2022-12-18T01:56:16;3.80;;;3.40;;
11522;SDS011;40093;43.224;27.910;2022-12-18T01:58:47;4.67;;;3.70;;
11522;SDS011;40093;43.224;27.910;2022-12-18T02:01:21;5.37;;;3.73;;
11522;SDS011;40093;43.224;27.910;2022-12-18T02:03:49;4.37;;;3.97;;
11522;SDS011;40093;43.224;27.910;2022-12-18T02:06:17;3.60;;;3.30;;
11522;SDS011;40093;43.224;27.910;2022-12-18T02:08:58;5.00;;;3.70;;
11522;SDS011;40093;43.224;27.910;2022-12-18T02:11:37;3.90;;;3.50;;
11522;SDS011;40093;43.224;27.910;2022-12-18T02:14:16;5.27;;;3.97;;
11522;SDS011;40093;43.224;27.910;2022-12-18T02:16:52;4.47;;;3.73;;
11522;SDS011;40093;43.224;27.910;2022-12-18T02:19:31;3.83;;;3.43;;
11522;SDS011;40093;43.224;27.910;2022-12-18T02:22:14;4.93;;;4.00;;
11522;SDS011;40093;43.224;27.910;2022-12-18T02:24:57;4.37;;;3.97;;
11522;SDS011;40093;43.224;27.910;2022-12-18T02:27:32;4.60;;;4.00;;
11522;SDS011;40093;43.224;27.910;2022-12-18T02:30:01;5.00;;;4.20;;
11522;SDS011;40093;43.224;27.910;2022-12-18T02:32:30;4.87;;;3.90;;
11522;SDS011;40093;43.224;27.910;2022-12-18T02:35:00;5.90;;;5.23;;
11522;SDS011;40093;43.224;27.910;2022-12-18T02:37:29;4.87;;;4.37;;
11522;SDS011;40093;43.224;27.910;2022-12-18T02:39:58;5.03;;;4.07;;
11522;SDS011;40093;43.224;27.910;2022-12-18T02:42:26;5.07;;;3.77;;
11522;SDS011;40093;43.224;27.910;2022-12-18T02:44:56;4.17;;;3.77;;
11522;SDS011;40093;43.224;27.910;2022-12-18T02:47:24;4.27;;;3.87;;
11522;SDS011;40093;43.224;27.910;2022-12-18T02:49:57;4.47;;;3.97;;
11522;SDS011;40093;43.224;27.910;2022-12-18T02:52:34;4.33;;;3.90;;
11522;SDS011;40093;43.224;27.910;2022-12-18T02:55:13;5.77;;;3.87;;
11522;SDS011;40093;43.224;27.910;2022-12-18T02:57:49;4.50;;;3.70;;
11522;SDS011;40093;43.224;27.910;2022-12-18T03:00:22;4.40;;;3.70;;
11522;SDS011;40093;43.224;27.910;2022-12-18T03:02:54;5.27;;;3.93;;
11522;SDS011;40093;43.224;27.910;2022-12-18T03:05:27;4.47;;;3.80;;
11522;SDS011;40093;43.224;27.910;2022-12-18T03:08:00;5.00;;;3.80;;
11522;SDS011;40093;43.224;27.910;2022-12-18T03:10:31;4.47;;;3.70;;
11522;SDS011;40093;43.224;27.910;2022-12-18T03:13:02;4.73;;;4.20;;
11522;SDS011;40093;43.224;27.910;2022-12-18T03:15:34;4.10;;;3.70;;
11522;SDS011;40093;43.224;27.910;2022-12-18T03:18:04;4.63;;;3.87;;
11522;SDS011;40093;43.224;27.910;2022-12-18T03:20:37;4.57;;;4.03;;
11522;SDS011;40093;43.224;27.910;2022-12-18T03:23:09;4.63;;;4.13;;
11522;SDS011;40093;43.224;27.910;2022-12-18T03:25:39;4.57;;;4.03;;
11522;SDS011;40093;43.224;27.910;2022-12-18T03:28:08;4.80;;;4.30;;
11522;SDS011;40093;43.224;27.910;2022-12-18T03:30:40;4.40;;;4.00;;
11522;SDS011;40093;43.224;27.910;2022-12-18T03:33:11;6.93;;;4.30;;
11522;SDS011;40093;43.224;27.910;2022-12-18T03:35:42;4.13;;;3.73;;
11522;SDS011;40093;43.224;27.910;2022-12-18T03:38:10;7.23;;;4.03;;
11522;SDS011;40093;43.224;27.910;2022-12-18T03:40:41;5.27;;;4.23;;
11522;SDS011;40093;43.224;27.910;2022-12-18T03:43:18;4.10;;;3.67;;
11522;SDS011;40093;43.224;27.910;2022-12-18T03:45:53;4.83;;;3.73;;
11522;SDS011;40093;43.224;27.910;2022-12-18T03:48:26;4.20;;;3.70;;
11522;SDS011;40093;43.224;27.910;2022-12-18T03:50:58;4.03;;;3.40;;
11522;SDS011;40093;43.224;27.910;2022-12-18T03:53:30;4.30;;;3.47;;
11522;SDS011;40093;43.224;27.910;2022-12-18T03:56:01;4.37;;;3.30;;
11522;SDS011;40093;43.224;27.910;2022-12-18T03:58:30;5.17;;;3.43;;
11522;SDS011;40093;43.224;27.910;2022-12-18T04:01:01;4.73;;;3.23;;
11522;SDS011;40093;43.224;27.910;2022-12-18T04:03:34;4.00;;;3.60;;
11522;SDS011;40093;43.224;27.910;2022-12-18T04:06:02;4.47;;;3.90;;
11522;SDS011;40093;43.224;27.910;2022-12-18T04:08:31;4.23;;;3.77;;
11522;SDS011;40093;43.224;27.910;2022-12-18T04:11:00;6.23;;;4.10;;
11522;SDS011;40093;43.224;27.910;2022-12-18T04:13:29;4.13;;;3.73;;
11522;SDS011;40093;43.224;27.910;2022-12-18T04:15:58;6.10;;;3.97;;
11522;SDS011;40093;43.224;27.910;2022-12-18T04:18:26;4.63;;;4.10;;
11522;SDS011;40093;43.224;27.910;2022-12-18T04:20:53;5.37;;;4.40;;
11522;SDS011;40093;43.224;27.910;2022-12-18T04:23:21;7.10;;;4.70;;
11522;SDS011;40093;43.224;27.910;2022-12-18T04:25:48;5.33;;;4.70;;
11522;SDS011;40093;43.224;27.910;2022-12-18T04:28:15;5.00;;;4.50;;
11522;SDS011;40093;43.224;27.910;2022-12-18T04:30:41;9.43;;;6.10;;
11522;SDS011;40093;43.224;27.910;2022-12-18T04:33:09;5.97;;;5.10;;
11522;SDS011;40093;43.224;27.910;2022-12-18T04:35:38;6.10;;;5.50;;
11522;SDS011;40093;43.224;27.910;2022-12-18T04:38:05;6.20;;;5.20;;
11522;SDS011;40093;43.224;27.910;2022-12-18T04:40:33;6.80;;;6.07;;
11522;SDS011;40093;43.224;27.910;2022-12-18T04:43:03;8.43;;;6.20;;
11522;SDS011;40093;43.224;27.910;2022-12-18T04:45:30;7.80;;;6.20;;
11522;SDS011;40093;43.224;27.910;2022-12-18T04:47:57;7.23;;;6.10;;
11522;SDS011;40093;43.224;27.910;2022-12-18T04:50:24;7.90;;;7.00;;
11522;SDS011;40093;43.224;27.910;2022-12-18T04:52:53;10.47;;;7.13;;
11522;SDS011;40093;43.224;27.910;2022-12-18T04:55:19;10.93;;;7.30;;
11522;SDS011;40093;43.224;27.910;2022-12-18T04:57:49;8.77;;;7.40;;
11522;SDS011;40093;43.224;27.910;2022-12-18T05:00:18;9.27;;;7.30;;
11522;SDS011;40093;43.224;27.910;2022-12-18T05:02:45;9.60;;;7.60;;
11522;SDS011;40093;43.224;27.910;2022-12-18T05:05:12;8.27;;;7.37;;
11522;SDS011;40093;43.224;27.910;2022-12-18T05:07:39;12.07;;;7.80;;
11522;SDS011;40093;43.224;27.910;2022-12-18T05:10:08;9.57;;;7.90;;
11522;SDS011;40093;43.224;27.910;2022-12-18T05:12:35;9.00;;;7.70;;
11522;SDS011;40093;43.224;27.910;2022-12-18T05:15:23;8.63;;;7.33;;
11522;SDS011;40093;43.224;27.910;2022-12-18T05:17:50;12.90;;;9.10;;
11522;SDS011;40093;43.224;27.910;2022-12-18T05:20:17;11.17;;;8.47;;
11522;SDS011;40093;43.224;27.910;2022-12-18T05:22:44;9.57;;;8.17;;
11522;SDS011;40093;43.224;27.910;2022-12-18T05:25:13;11.13;;;8.10;;
11522;SDS011;40093;43.224;27.910;2022-12-18T05:27:40;10.50;;;8.27;;
11522;SDS011;40093;43.224;27.910;2022-12-18T05:30:07;9.23;;;8.03;;
11522;SDS011;40093;43.224;27.910;2022-12-18T05:32:35;10.97;;;8.57;;
11522;SDS011;40093;43.224;27.910;2022-12-18T05:35:02;13.60;;;9.23;;
11522;SDS011;40093;43.224;27.910;2022-12-18T05:37:30;11.07;;;9.13;;
11522;SDS011;40093;43.224;27.910;2022-12-18T05:39:57;13.00;;;9.80;;
11522;SDS011;40093;43.224;27.910;2022-12-18T05:42:26;13.20;;;10.23;;
11522;SDS011;40093;43.224;27.910;2022-12-18T05:44:53;13.30;;;10.37;;
11522;SDS011;40093;43.224;27.910;2022-12-18T05:47:22;14.63;;;11.07;;
11522;SDS011;40093;43.224;27.910;2022-12-18T05:49:49;17.10;;;12.07;;
11522;SDS011;40093;43.224;27.910;2022-12-18T05:52:16;16.97;;;12.00;;
11522;SDS011;40093;43.224;27.910;2022-12-18T05:54:43;14.97;;;11.93;;
11522;SDS011;40093;43.224;27.910;2022-12-18T05:57:10;16.17;;;12.00;;
11522;SDS011;40093;43.224;27.910;2022-12-18T05:59:38;16.63;;;12.37;;
11522;SDS011;40093;43.224;27.910;2022-12-18T06:02:07;17.23;;;13.20;;
11522;SDS011;40093;43.224;27.910;2022-12-18T06:04:35;17.67;;;12.67;;
11522;SDS011;40093;43.224;27.910;2022-12-18T06:07:01;15.93;;;12.80;;
11522;SDS011;40093;43.224;27.910;2022-12-18T06:09:31;17.70;;;13.33;;
11522;SDS011;40093;43.224;27.910;2022-12-18T06:11:58;18.83;;;12.87;;
11522;SDS011;40093;43.224;27.910;2022-12-18T06:14:25;17.60;;;13.20;;
11522;SDS011;40093;43.224;27.910;2022-12-18T06:16:53;19.80;;;14.37;;
11522;SDS011;40093;43.224;27.910;2022-12-18T06:19:20;17.27;;;13.37;;
11522;SDS011;40093;43.224;27.910;2022-12-18T06:21:47;17.80;;;13.97;;
11522;SDS011;40093;43.224;27.910;2022-12-18T06:24:14;19.63;;;13.87;;
11522;SDS011;40093;43.224;27.910;2022-12-18T06:26:41;17.73;;;13.70;;
11522;SDS011;40093;43.224;27.910;2022-12-18T06:29:08;21.37;;;14.37;;
11522;SDS011;40093;43.224;27.910;2022-12-18T06:31:35;19.60;;;13.73;;
11522;SDS011;40093;43.224;27.910;2022-12-18T06:34:04;17.23;;;13.33;;
11522;SDS011;40093;43.224;27.910;2022-12-18T06:36:31;18.63;;;13.87;;
11522;SDS011;40093;43.224;27.910;2022-12-18T06:38:58;18.60;;;14.10;;
11522;SDS011;40093;43.224;27.910;2022-12-18T06:41:25;18.20;;;14.13;;
11522;SDS011;40093;43.224;27.910;2022-12-18T06:43:52;18.77;;;14.03;;
11522;SDS011;40093;43.224;27.910;2022-12-18T06:46:19;19.17;;;14.60;;
11522;SDS011;40093;43.224;27.910;2022-12-18T06:48:46;20.83;;;15.70;;
11522;SDS011;40093;43.224;27.910;2022-12-18T06:51:17;22.73;;;16.40;;
11522;SDS011;40093;43.224;27.910;2022-12-18T06:53:44;20.87;;;16.37;;
11522;SDS011;40093;43.224;27.910;2022-12-18T06:56:11;23.17;;;16.53;;
11522;SDS011;40093;43.224;27.910;2022-12-18T06:58:38;23.23;;;16.47;;
11522;SDS011;40093;43.224;27.910;2022-12-18T07:01:06;23.67;;;16.90;;
11522;SDS011;40093;43.224;27.910;2022-12-18T07:03:35;21.43;;;16.10;;
11522;SDS011;40093;43.224;27.910;2022-12-18T07:06:02;22.73;;;16.60;;
11522;SDS011;40093;43.224;27.910;2022-12-18T07:08:31;27.50;;;18.33;;
11522;SDS011;40093;43.224;27.910;2022-12-18T07:10:58;25.00;;;17.07;;
11522;SDS011;40093;43.224;27.910;2022-12-18T07:13:25;24.30;;;17.27;;
11522;SDS011;40093;43.224;27.910;2022-12-18T07:15:52;22.67;;;16.87;;
11522;SDS011;40093;43.224;27.910;2022-12-18T07:18:19;25.13;;;18.50;;
11522;SDS011;40093;43.224;27.910;2022-12-18T07:20:46;25.10;;;17.93;;
11522;SDS011;40093;43.224;27.910;2022-12-18T07:23:13;25.37;;;17.83;;
11522;SDS011;40093;43.224;27.910;2022-12-18T07:25:41;24.97;;;18.23;;
11522;SDS011;40093;43.224;27.910;2022-12-18T07:28:08;27.83;;;19.17;;
11522;SDS011;40093;43.224;27.910;2022-12-18T07:30:36;27.77;;;18.60;;
11522;SDS011;40093;43.224;27.910;2022-12-18T07:33:03;27.50;;;18.97;;
11522;SDS011;40093;43.224;27.910;2022-12-18T07:35:30;24.60;;;17.50;;
11522;SDS011;40093;43.224;27.910;2022-12-18T07:38:04;27.47;;;18.67;;
11522;SDS011;40093;43.224;27.910;2022-12-18T07:40:31;26.27;;;18.50;;
11522;SDS011;40093;43.224;27.910;2022-12-18T07:43:00;27.33;;;19.43;;
11522;SDS011;40093;43.224;27.910;2022-12-18T07:45:26;28.70;;;19.23;;
11522;SDS011;40093;43.224;27.910;2022-12-18T07:48:02;26.83;;;19.50;;
11522;SDS011;40093;43.224;27.910;2022-12-18T07:50:29;28.10;;;20.07;;
11522;SDS011;40093;43.224;27.910;2022-12-18T07:52:56;27.00;;;20.00;;
11522;SDS011;40093;43.224;27.910;2022-12-18T07:55:22;28.93;;;20.30;;
11522;SDS011;40093;43.224;27.910;2022-12-18T07:57:49;28.57;;;19.60;;
11522;SDS011;40093;43.224;27.910;2022-12-18T08:00:18;26.27;;;19.33;;
11522;SDS011;40093;43.224;27.910;2022-12-18T08:02:45;28.60;;;20.20;;
11522;SDS011;40093;43.224;27.910;2022-12-18T08:05:12;27.47;;;20.20;;
11522;SDS011;40093;43.224;27.910;2022-12-18T08:07:39;27.73;;;19.97;;
11522;SDS011;40093;43.224;27.910;2022-12-18T08:10:07;27.90;;;19.73;;
11522;SDS011;40093;43.224;27.910;2022-12-18T08:12:34;30.50;;;20.13;;
11522;SDS011;40093;43.224;27.910;2022-12-18T08:15:01;28.90;;;20.40;;
11522;SDS011;40093;43.224;27.910;2022-12-18T08:17:29;30.70;;;20.47;;
11522;SDS011;40093;43.224;27.910;2022-12-18T08:19:56;30.47;;;20.33;;
11522;SDS011;40093;43.224;27.910;2022-12-18T08:22:23;26.77;;;18.93;;
11522;SDS011;40093;43.224;27.910;2022-12-18T08:24:50;26.67;;;19.67;;
11522;SDS011;40093;43.224;27.910;2022-12-18T08:27:17;45.50;;;34.73;;
11522;SDS011;40093;43.224;27.910;2022-12-18T08:29:44;28.33;;;20.20;;
11522;SDS011;40093;43.224;27.910;2022-12-18T08:32:11;29.27;;;20.87;;
11522;SDS011;40093;43.224;27.910;2022-12-18T08:34:39;25.63;;;18.90;;
11522;SDS011;40093;43.224;27.910;2022-12-18T08:37:06;28.87;;;19.57;;
11522;SDS011;40093;43.224;27.910;2022-12-18T08:39:32;27.73;;;20.13;;
11522;SDS011;40093;43.224;27.910;2022-12-18T08:41:59;31.70;;;21.37;;
11522;SDS011;40093;43.224;27.910;2022-12-18T08:44:43;33.77;;;21.07;;
11522;SDS011;40093;43.224;27.910;2022-12-18T08:47:10;30.90;;;21.67;;
11522;SDS011;40093;43.224;27.910;2022-12-18T08:49:38;36.87;;;24.43;;
11522;SDS011;40093;43.224;27.910;2022-12-18T08:52:05;29.57;;;20.57;;
11522;SDS011;40093;43.224;27.910;2022-12-18T08:54:32;27.93;;;19.77;;
11522;SDS011;40093;43.224;27.910;2022-12-18T08:56:59;28.53;;;20.80;;
11522;SDS011;40093;43.224;27.910;2022-12-18T08:59:26;31.40;;;21.07;;
11522;SDS011;40093;43.224;27.910;2022-12-18T09:01:56;31.67;;;21.00;;
11522;SDS011;40093;43.224;27.910;2022-12-18T09:04:23;30.37;;;22.40;;
11522;SDS011;40093;43.224;27.910;2022-12-18T09:06:59;31.83;;;22.23;;
11522;SDS011;40093;43.224;27.910;2022-12-18T09:09:26;32.77;;;21.30;;
11522;SDS011;40093;43.224;27.910;2022-12-18T09:11:53;34.00;;;20.60;;
11522;SDS011;40093;43.224;27.910;2022-12-18T09:14:20;35.80;;;22.87;;
11522;SDS011;40093;43.224;27.910;2022-12-18T09:16:47;32.87;;;22.27;;
11522;SDS011;40093;43.224;27.910;2022-12-18T09:19:14;33.17;;;21.37;;
11522;SDS011;40093;43.224;27.910;2022-12-18T09:21:41;29.33;;;20.10;;
11522;SDS011;40093;43.224;27.910;2022-12-18T09:24:10;30.00;;;21.10;;
11522;SDS011;40093;43.224;27.910;2022-12-18T09:26:38;31.37;;;21.57;;
11522;SDS011;40093;43.224;27.910;2022-12-18T09:29:05;34.20;;;22.10;;
11522;SDS011;40093;43.224;27.910;2022-12-18T09:31:34;34.37;;;22.33;;
11522;SDS011;40093;43.224;27.910;2022-12-18T09:34:01;31.50;;;21.77;;
11522;SDS011;40093;43.224;27.910;2022-12-18T09:36:31;30.00;;;21.43;;
11522;SDS011;40093;43.224;27.910;2022-12-18T09:38:58;32.77;;;22.67;;
11522;SDS011;40093;43.224;27.910;2022-12-18T09:44:23;30.70;;;21.53;;
11522;SDS011;40093;43.224;27.910;2022-12-18T09:46:54;32.53;;;21.47;;
11522;SDS011;40093;43.224;27.910;2022-12-18T09:49:34;33.43;;;21.90;;
11522;SDS011;40093;43.224;27.910;2022-12-18T09:52:04;30.30;;;21.50;;
11522;SDS011;40093;43.224;27.910;2022-12-18T09:54:36;31.80;;;21.30;;
11522;SDS011;40093;43.224;27.910;2022-12-18T09:57:12;32.33;;;22.60;;
11522;SDS011;40093;43.224;27.910;2022-12-18T09:59:40;30.93;;;21.13;;
11522;SDS011;40093;43.224;27.910;2022-12-18T10:02:14;33.60;;;22.20;;
11522;SDS011;40093;43.224;27.910;2022-12-18T10:04:43;32.40;;;21.83;;
11522;SDS011;40093;43.224;27.910;2022-12-18T10:07:13;31.20;;;22.60;;
11522;SDS011;40093;43.224;27.910;2022-12-18T10:09:47;32.20;;;22.20;;
11522;SDS011;40093;43.224;27.910;2022-12-18T10:12:27;31.20;;;21.30;;
11522;SDS011;40093;43.224;27.910;2022-12-18T10:15:00;33.43;;;22.33;;
11522;SDS011;40093;43.224;27.910;2022-12-18T10:17:35;34.57;;;22.20;;
11522;SDS011;40093;43.224;27.910;2022-12-18T10:20:13;33.03;;;21.80;;
11522;SDS011;40093;43.224;27.910;2022-12-18T10:22:49;33.60;;;22.20;;
11522;SDS011;40093;43.224;27.910;2022-12-18T10:25:24;35.30;;;23.40;;
11522;SDS011;40093;43.224;27.910;2022-12-18T10:27:57;32.97;;;22.40;;
11522;SDS011;40093;43.224;27.910;2022-12-18T10:30:33;32.97;;;22.97;;
11522;SDS011;40093;43.224;27.910;2022-12-18T10:33:00;35.17;;;23.63;;
11522;SDS011;40093;43.224;27.910;2022-12-18T10:35:27;33.13;;;23.07;;
11522;SDS011;40093;43.224;27.910;2022-12-18T10:40:50;33.13;;;23.77;;
11522;SDS011;40093;43.224;27.910;2022-12-18T10:43:24;29.03;;;21.57;;
11522;SDS011;40093;43.224;27.910;2022-12-18T10:46:04;35.20;;;22.27;;
11522;SDS011;40093;43.224;27.910;2022-12-18T10:48:47;31.53;;;21.83;;
11522;SDS011;40093;43.224;27.910;2022-12-18T10:51:23;30.97;;;20.83;;
11522;SDS011;40093;43.224;27.910;2022-12-18T10:53:53;38.77;;;27.53;;
11522;SDS011;40093;43.224;27.910;2022-12-18T10:56:23;33.00;;;21.40;;
11522;SDS011;40093;43.224;27.910;2022-12-18T10:58:57;29.93;;;20.90;;
11522;SDS011;40093;43.224;27.910;2022-12-18T11:01:26;33.73;;;21.80;;
11522;SDS011;40093;43.224;27.910;2022-12-18T11:04:02;32.20;;;22.77;;
11522;SDS011;40093;43.224;27.910;2022-12-18T11:06:35;34.73;;;22.77;;
11522;SDS011;40093;43.224;27.910;2022-12-18T11:09:20;37.07;;;24.37;;
11522;SDS011;40093;43.224;27.910;2022-12-18T11:11:49;35.73;;;24.37;;
11522;SDS011;40093;43.224;27.910;2022-12-18T11:14:20;31.13;;;22.20;;
11522;SDS011;40093;43.224;27.910;2022-12-18T11:16:51;34.33;;;24.03;;
11522;SDS011;40093;43.224;27.910;2022-12-18T11:19:26;31.83;;;22.00;;
11522;SDS011;40093;43.224;27.910;2022-12-18T11:21:57;35.70;;;23.03;;
11522;SDS011;40093;43.224;27.910;2022-12-18T11:24:27;36.27;;;26.57;;
11522;SDS011;40093;43.224;27.910;2022-12-18T11:26:57;43.37;;;27.07;;
11522;SDS011;40093;43.224;27.910;2022-12-18T11:29:37;35.33;;;23.97;;
11522;SDS011;40093;43.224;27.910;2022-12-18T11:32:21;36.93;;;24.80;;
11522;SDS011;40093;43.224;27.910;2022-12-18T11:34:58;40.10;;;26.93;;
11522;SDS011;40093;43.224;27.910;2022-12-18T11:37:29;36.47;;;25.47;;
11522;SDS011;40093;43.224;27.910;2022-12-18T11:39:59;42.27;;;26.90;;
11522;SDS011;40093;43.224;27.910;2022-12-18T11:42:32;48.10;;;29.23;;
11522;SDS011;40093;43.224;27.910;2022-12-18T11:45:08;43.23;;;27.23;;
11522;SDS011;40093;43.224;27.910;2022-12-18T11:48:02;38.13;;;25.40;;
11522;SDS011;40093;43.224;27.910;2022-12-18T11:50:45;32.87;;;22.57;;
11522;SDS011;40093;43.224;27.910;2022-12-18T11:53:15;37.90;;;25.53;;
11522;SDS011;40093;43.224;27.910;2022-12-18T11:55:46;38.50;;;23.03;;
11522;SDS011;40093;43.224;27.910;2022-12-18T11:58:24;40.13;;;25.17;;
11522;SDS011;40093;43.224;27.910;2022-12-18T12:01:03;31.33;;;21.63;;
11522;SDS011;40093;43.224;27.910;2022-12-18T12:03:44;28.33;;;20.23;;
11522;SDS011;40093;43.224;27.910;2022-12-18T12:06:30;24.77;;;17.87;;
11522;SDS011;40093;43.224;27.910;2022-12-18T12:09:10;27.97;;;18.83;;
11522;SDS011;40093;43.224;27.910;2022-12-18T12:11:47;26.30;;;18.27;;
11522;SDS011;40093;43.224;27.910;2022-12-18T12:14:37;26.80;;;18.50;;
11522;SDS011;40093;43.224;27.910;2022-12-18T12:17:16;27.13;;;16.50;;
11522;SDS011;40093;43.224;27.910;2022-12-18T12:19:52;22.03;;;16.13;;
11522;SDS011;40093;43.224;27.910;2022-12-18T12:22:30;28.80;;;17.03;;
11522;SDS011;40093;43.224;27.910;2022-12-18T12:25:07;24.73;;;18.53;;
11522;SDS011;40093;43.224;27.910;2022-12-18T12:27:48;24.03;;;16.50;;
11522;SDS011;40093;43.224;27.910;2022-12-18T12:30:22;22.40;;;16.03;;
11522;SDS011;40093;43.224;27.910;2022-12-18T12:33:04;20.43;;;14.33;;
11522;SDS011;40093;43.224;27.910;2022-12-18T12:35:44;22.67;;;16.23;;
11522;SDS011;40093;43.224;27.910;2022-12-18T12:38:21;21.77;;;15.03;;
11522;SDS011;40093;43.224;27.910;2022-12-18T12:40:54;19.80;;;13.83;;
11522;SDS011;40093;43.224;27.910;2022-12-18T12:43:31;19.43;;;14.47;;
11522;SDS011;40093;43.224;27.910;2022-12-18T12:46:03;16.73;;;12.80;;
11522;SDS011;40093;43.224;27.910;2022-12-18T12:48:37;13.33;;;10.63;;
11522;SDS011;40093;43.224;27.910;2022-12-18T12:51:10;18.00;;;12.83;;
11522;SDS011;40093;43.224;27.910;2022-12-18T12:53:40;12.67;;;10.57;;
11522;SDS011;40093;43.224;27.910;2022-12-18T12:56:10;14.30;;;10.87;;
11522;SDS011;40093;43.224;27.910;2022-12-18T12:58:43;18.70;;;12.93;;
11522;SDS011;40093;43.224;27.910;2022-12-18T13:01:18;22.00;;;14.17;;
11522;SDS011;40093;43.224;27.910;2022-12-18T13:03:58;30.93;;;19.60;;
11522;SDS011;40093;43.224;27.910;2022-12-18T13:06:37;12.27;;;10.10;;
11522;SDS011;40093;43.224;27.910;2022-12-18T13:09:09;17.70;;;12.63;;
11522;SDS011;40093;43.224;27.910;2022-12-18T13:11:37;11.90;;;9.60;;
11522;SDS011;40093;43.224;27.910;2022-12-18T13:14:25;12.77;;;10.03;;
11522;SDS011;40093;43.224;27.910;2022-12-18T13:19:42;12.77;;;9.30;;
11522;SDS011;40093;43.224;27.910;2022-12-18T13:22:20;14.67;;;10.20;;
11522;SDS011;40093;43.224;27.910;2022-12-18T13:24:48;11.50;;;9.10;;
11522;SDS011;40093;43.224;27.910;2022-12-18T13:36:25;14.93;;;10.33;;
11522;SDS011;40093;43.224;27.910;2022-12-18T13:41:48;17.27;;;11.90;;
11522;SDS011;40093;43.224;27.910;2022-12-18T13:44:22;15.27;;;10.50;;
11522;SDS011;40093;43.224;27.910;2022-12-18T13:46:52;12.93;;;9.70;;
11522;SDS011;40093;43.224;27.910;2022-12-18T13:49:21;11.07;;;9.17;;
11522;SDS011;40093;43.224;27.910;2022-12-18T13:51:54;12.37;;;9.63;;
11522;SDS011;40093;43.224;27.910;2022-12-18T13:54:24;15.57;;;10.87;;
11522;SDS011;40093;43.224;27.910;2022-12-18T13:56:58;14.30;;;10.83;;
11522;SDS011;40093;43.224;27.910;2022-12-18T13:59:32;14.70;;;10.00;;
11522;SDS011;40093;43.224;27.910;2022-12-18T14:02:07;13.60;;;10.30;;
11522;SDS011;40093;43.224;27.910;2022-12-18T14:04:39;11.17;;;8.63;;
11522;SDS011;40093;43.224;27.910;2022-12-18T14:07:10;11.60;;;9.67;;
11522;SDS011;40093;43.224;27.910;2022-12-18T14:09:40;11.80;;;9.30;;
11522;SDS011;40093;43.224;27.910;2022-12-18T14:12:14;10.93;;;8.93;;
11522;SDS011;40093;43.224;27.910;2022-12-18T14:15:01;13.00;;;9.17;;
11522;SDS011;40093;43.224;27.910;2022-12-18T14:17:30;12.60;;;8.97;;
11522;SDS011;40093;43.224;27.910;2022-12-18T14:19:58;11.40;;;9.20;;
11522;SDS011;40093;43.224;27.910;2022-12-18T14:22:27;14.03;;;10.53;;
11522;SDS011;40093;43.224;27.910;2022-12-18T14:25:13;13.73;;;10.63;;
11522;SDS011;40093;43.224;27.910;2022-12-18T14:27:42;12.47;;;9.87;;
11522;SDS011;40093;43.224;27.910;2022-12-18T14:33:03;13.13;;;10.90;;
11522;SDS011;40093;43.224;27.910;2022-12-18T14:35:32;15.67;;;11.80;;
11522;SDS011;40093;43.224;27.910;2022-12-18T14:38:15;12.83;;;10.40;;
11522;SDS011;40093;43.224;27.910;2022-12-18T14:40:46;12.87;;;10.83;;
11522;SDS011;40093;43.224;27.910;2022-12-18T14:43:13;13.07;;;10.20;;
11522;SDS011;40093;43.224;27.910;2022-12-18T14:45:41;13.10;;;10.30;;
11522;SDS011;40093;43.224;27.910;2022-12-18T14:48:11;11.73;;;9.47;;
11522;SDS011;40093;43.224;27.910;2022-12-18T14:50:54;13.90;;;11.00;;
11522;SDS011;40093;43.224;27.910;2022-12-18T14:53:26;14.17;;;10.73;;
11522;SDS011;40093;43.224;27.910;2022-12-18T14:55:58;15.57;;;11.47;;
11522;SDS011;40093;43.224;27.910;2022-12-18T14:58:26;14.70;;;11.07;;
11522;SDS011;40093;43.224;27.910;2022-12-18T15:00:53;14.47;;;10.13;;
11522;SDS011;40093;43.224;27.910;2022-12-18T15:03:20;14.33;;;11.43;;